Aberdeen, MD

3:19 PM EDT on October 31, 2014 (GMT -0400)
Lily Run | Change Station
CLOSE
Current Station
Personal Weather Station
Location: Havre De Grace, MD
Elevation: 23 ft
Nearby Weather Stations

Elev 23 ft 39.55 °N, 76.10 °W | Updated 4 minutes ago

Partly Cloudy
Partly Cloudy
55.4 °F
Feels Like 55.4 °F
N
2.0
Wind Variable Wind from NNW

Today
High -- | Low -- °F
--% Chance of Precip.
Yesterday
High -- | Low -- °F
Precip. -- in
7:31 AM 6:04 PM
First Quarter, 58% visible
Pressure 29.90 in
Visibility 7.0 miles
Clouds Scattered Clouds 4000 ft
Dew Point 22 °F
Humidity 27%
Rainfall 0.00 in
Snow Depth Not available.
UV 2 out of 12
Pollen .20 out of 12
Air Quality Not available.
Flu Activity Not available.
METAR KAPG 311846Z 09008KT 7SM SCT040 14/02 A2990

More Conditions Fewer Conditions

Pressure 29.90 in
Visibility 7.0 miles
Clouds Scattered Clouds 4000 ft
Dew Point 22 °F
Humidity 27%
Rainfall 0.00 in
Snow Depth Not available.
UV 2 out of 12
Pollen .20 out of 12
Air Quality Not available.
Flu Activity Not available.
METAR KAPG 311846Z 09008KT 7SM SCT040 14/02 A2990

More Conditions Fewer Conditions

10-Day Weather Forecast

Almanac

Astronomy

Oct. 31, 2014 Rise Set
Actual Time
Civil Twilight
Nautical Twilight
Astronomical Twilight
Moon
Length of Visible Light
Length of Day
Tomorrow will be .
, % of the Moon is Illuminated

Today's Extremes

State Highs State Lows

Community

WunderPhotos

Upload Photos

1,766,696 photos uploaded!

WunderBlogs® & News

Nearby

Air Quality

  Air Quality AQ Index Pollutant
Not available.

Snow Depth

Station Depth Elevation

Earthquake Activity

City Distance Mag. Time & Date
Minimum magnitude displayed is 2.5.

Coastal Water Temperatures

Place Temperature

Nearby Weather Stations